Terminal Aerodrome Forecast
Issued by NWS

Home | Current Version | Previous Version | Text Only | Print | Product List | Glossary On
Versions: 1 2 3 4 5 6 7 8 9 10 11 12 13 14 15 16 17 18 19 20 21 22 23 24 25 26 27 28 29 30
530
FTUS41 KBUF 172136 AAA
TAFJHW
TAF AMD
KJHW 172136Z 1722/1818 17004KT 4SM BR SCT012
     FM180400 20009KT P6SM VCSH OVC012
     FM180800 21009KT P6SM VCSH OVC007
     FM181100 21010G20KT P6SM VCSH OVC012
      AMD LTD TO CLD VIS AND WIND=

USA.gov is the U.S. government's official web portal to all federal, state and local government web resources and services.